Time;durP1;ratioP1;P1;durP2;ratioP2;P2;SDS_P1;SDS_P2;PMS_P1;PMS_P2;Temp;Humidity;BMP_temperature;BMP_pressure;BME280_temperature;BME280_humidity;BME280_pressure;Samples;Min_cycle;Max_cycle;Signal;HPM_P1;HPM_P2
2024/01/17 00:02:03;;;;;;;6.07;2.27;;;-1.40;99.90;;;;;;5155979;24;20256;-84
2024/01/17 00:04:29;;;;;;;6.57;2.07;;;-1.40;99.90;;;;;;4768695;30;20211;-85
2024/01/17 00:06:57;;;;;;;6.40;2.43;;;-1.40;99.90;;;;;;4751303;30;20976;-86
2024/01/17 00:09:24;;;;;;;4.93;2.20;;;-1.40;99.90;;;;;;4756520;30;20234;-86
2024/01/17 00:11:51;;;;;;;6.23;2.20;;;-1.40;99.90;;;;;;4756358;30;20195;-87
2024/01/17 00:14:18;;;;;;;7.67;2.50;;;-1.40;99.90;;;;;;4756204;30;20198;-85
2024/01/17 00:16:44;;;;;;;7.47;2.63;;;-1.40;99.90;;;;;;4755923;30;20226;-85
2024/01/17 00:19:10;;;;;;;8.80;2.27;;;-1.50;99.90;;;;;;4756428;30;20202;-86
2024/01/17 00:21:35;;;;;;;10.60;2.83;;;-1.40;99.90;;;;;;4756132;30;20232;-86
2024/01/17 00:24:03;;;;;;;8.80;2.37;;;-1.50;99.90;;;;;;4772051;30;20204;-87
2024/01/17 00:26:29;;;;;;;7.47;2.60;;;-1.40;99.90;;;;;;4772101;30;20199;-87
2024/01/17 00:28:55;;;;;;;7.67;2.70;;;-1.50;99.90;;;;;;4754187;30;20224;-86
2024/01/17 00:31:22;;;;;;;4.83;2.40;;;-1.50;99.90;;;;;;4751671;30;20206;-87
2024/01/17 00:33:49;;;;;;;4.50;2.23;;;-1.50;99.90;;;;;;4755162;30;20192;-87
2024/01/17 00:36:16;;;;;;;6.93;2.80;;;-1.50;99.90;;;;;;4753488;30;20196;-86
2024/01/17 00:38:41;;;;;;;4.60;2.70;;;-1.50;99.90;;;;;;4753906;30;20196;-88
2024/01/17 00:41:07;;;;;;;6.97;2.30;;;-1.60;99.90;;;;;;4755961;30;20449;-86
2024/01/17 00:43:33;;;;;;;4.43;2.20;;;-1.60;99.90;;;;;;4755729;30;20616;-86
2024/01/17 00:45:59;;;;;;;8.30;2.77;;;-1.60;99.90;;;;;;4756047;30;20203;-85
2024/01/17 00:48:24;;;;;;;4.97;2.43;;;-1.60;99.90;;;;;;4749180;30;20629;-86
2024/01/17 00:50:50;;;;;;;4.67;2.63;;;-1.60;99.90;;;;;;4752726;30;20249;-86
2024/01/17 00:53:16;;;;;;;8.13;2.30;;;-1.60;99.90;;;;;;4750750;30;20262;-87
2024/01/17 00:55:42;;;;;;;5.73;2.53;;;-1.60;99.90;;;;;;4741049;30;20223;-85
2024/01/17 00:58:07;;;;;;;8.40;2.67;;;-1.70;99.90;;;;;;4755481;30;20195;-86
2024/01/17 01:00:33;;;;;;;8.13;2.90;;;-1.70;99.90;;;;;;4755783;30;20238;-85
2024/01/17 01:02:59;;;;;;;7.67;2.53;;;-1.70;99.90;;;;;;4755295;30;20336;-86
2024/01/17 01:05:24;;;;;;;6.20;2.63;;;-1.70;99.90;;;;;;4755780;30;20211;-86
2024/01/17 01:07:51;;;;;;;6.60;3.10;;;-1.70;99.90;;;;;;4740260;30;20710;-86
2024/01/17 01:10:17;;;;;;;7.30;2.70;;;-1.70;99.90;;;;;;4745607;30;20227;-87
2024/01/17 01:12:42;;;;;;;6.03;2.87;;;-1.70;99.90;;;;;;4748074;30;20207;-86
2024/01/17 01:15:10;;;;;;;8.53;2.50;;;-1.60;99.90;;;;;;4748523;30;20232;-86
2024/01/17 01:17:36;;;;;;;9.23;2.97;;;-1.60;99.90;;;;;;4755119;30;20290;-85
2024/01/17 01:20:07;;;;;;;7.27;2.70;;;-1.60;99.90;;;;;;4755601;30;20330;-87
2024/01/17 01:22:36;;;;;;;6.73;2.53;;;-1.50;99.90;;;;;;4755397;30;20199;-86
2024/01/17 01:25:05;;;;;;;10.77;3.07;;;-1.50;99.90;;;;;;4755490;30;20200;-86
2024/01/17 01:27:32;;;;;;;14.73;3.20;;;-1.50;99.90;;;;;;4755336;30;20246;-87
2024/01/17 01:29:58;;;;;;;6.40;3.13;;;-1.50;99.90;;;;;;4755564;30;20196;-87
2024/01/17 01:32:26;;;;;;;5.57;2.80;;;-1.50;99.90;;;;;;4757149;30;20651;-87
2024/01/17 01:34:52;;;;;;;7.40;3.10;;;-1.50;99.90;;;;;;4756342;30;20200;-86
2024/01/17 01:37:17;;;;;;;5.57;3.10;;;-1.50;99.90;;;;;;4750050;30;20553;-85
2024/01/17 01:39:43;;;;;;;6.57;3.43;;;-1.50;99.90;;;;;;4758469;30;20623;-86
2024/01/17 01:42:09;;;;;;;10.17;3.03;;;-1.50;99.90;;;;;;4774484;30;20198;-86
2024/01/17 01:44:34;;;;;;;7.90;3.40;;;-1.40;99.90;;;;;;4758742;30;20205;-87
2024/01/17 01:47:00;;;;;;;10.60;3.23;;;-1.40;99.90;;;;;;4758567;30;20210;-85
2024/01/17 01:49:26;;;;;;;6.40;3.20;;;-1.40;99.90;;;;;;4758676;30;20194;-86
2024/01/17 01:51:53;;;;;;;10.17;3.40;;;-1.30;99.90;;;;;;4758265;30;20200;-86
2024/01/17 01:54:22;;;;;;;9.37;3.20;;;-1.40;99.90;;;;;;4758515;30;20188;-86
2024/01/17 01:56:50;;;;;;;8.90;3.50;;;-1.40;99.90;;;;;;4758478;30;20203;-86
2024/01/17 01:59:19;;;;;;;6.40;2.93;;;-1.50;99.90;;;;;;4758322;30;20604;-86
2024/01/17 02:01:47;;;;;;;9.10;3.63;;;-1.50;99.90;;;;;;4758252;30;20276;-88
2024/01/17 02:04:13;;;;;;;10.10;3.50;;;-1.50;99.90;;;;;;4758045;30;20203;-86
2024/01/17 02:06:42;;;;;;;8.60;3.60;;;-1.50;99.90;;;;;;4754407;30;20196;-87
2024/01/17 02:09:08;;;;;;;9.60;3.60;;;-1.50;99.90;;;;;;4753881;30;20243;-87
2024/01/17 02:11:35;;;;;;;11.87;3.97;;;-1.60;99.90;;;;;;4755622;30;20536;-87
2024/01/17 02:14:01;;;;;;;8.97;3.87;;;-1.60;99.90;;;;;;4754684;30;20199;-87
2024/01/17 02:16:27;;;;;;;5.33;3.20;;;-1.60;99.90;;;;;;4754343;30;20236;-87
2024/01/17 02:18:54;;;;;;;8.03;3.20;;;-1.60;99.90;;;;;;4757787;30;20199;-87
2024/01/17 02:21:19;;;;;;;10.60;3.70;;;-1.60;99.90;;;;;;4758051;30;20312;-87
2024/01/17 02:23:52;;;;;;;9.67;3.40;;;-1.70;99.90;;;;;;4758059;30;20199;-87
2024/01/17 02:26:19;;;;;;;9.77;3.77;;;-1.70;99.90;;;;;;4758136;30;20233;-86
2024/01/17 02:28:45;;;;;;;6.87;3.10;;;-1.70;99.90;;;;;;4757909;30;20613;-87
2024/01/17 02:31:12;;;;;;;5.43;3.30;;;-1.70;99.90;;;;;;4758189;30;20279;-87
2024/01/17 02:33:38;;;;;;;14.13;3.37;;;-1.70;99.90;;;;;;4757719;30;20330;-87
2024/01/17 02:36:07;;;;;;;10.63;3.77;;;-1.70;99.90;;;;;;4757099;30;20240;-87
2024/01/17 02:38:35;;;;;;;8.00;3.10;;;-1.80;99.90;;;;;;4755075;30;20250;-86
2024/01/17 02:41:01;;;;;;;7.30;3.73;;;-1.90;99.90;;;;;;4773709;30;20246;-87
2024/01/17 02:43:28;;;;;;;10.13;3.70;;;-1.90;99.90;;;;;;4757787;30;20201;-87
2024/01/17 02:45:55;;;;;;;9.27;3.77;;;-1.90;99.90;;;;;;4757878;30;20533;-88
2024/01/17 02:48:21;;;;;;;9.33;3.60;;;-1.90;99.90;;;;;;4757416;30;20272;-87
2024/01/17 02:50:47;;;;;;;7.43;3.60;;;-1.90;99.90;;;;;;4757854;30;20207;-87
2024/01/17 02:53:12;;;;;;;6.53;3.47;;;-2.00;99.90;;;;;;4758047;30;20199;-87
2024/01/17 02:55:39;;;;;;;7.30;3.70;;;-1.90;99.90;;;;;;4757083;30;20203;-87
2024/01/17 02:58:05;;;;;;;7.90;4.13;;;-1.90;99.90;;;;;;4751037;30;20209;-88
2024/01/17 03:00:33;;;;;;;9.00;3.30;;;-1.90;99.90;;;;;;4757393;30;20558;-87
2024/01/17 03:02:58;;;;;;;5.67;3.37;;;-2.00;99.90;;;;;;4742451;30;20326;-86
2024/01/17 03:05:24;;;;;;;11.30;3.50;;;-2.00;99.90;;;;;;4757288;30;20497;-87
2024/01/17 03:07:49;;;;;;;7.40;3.73;;;-2.10;99.90;;;;;;4766970;30;20647;-87
2024/01/17 03:10:15;;;;;;;10.53;4.37;;;-2.10;99.90;;;;;;4752311;30;20283;-88
2024/01/17 03:12:41;;;;;;;8.13;4.00;;;-2.10;99.90;;;;;;4757333;30;20211;-88
2024/01/17 03:15:10;;;;;;;7.83;3.80;;;-2.10;99.90;;;;;;4757444;30;20231;-87
2024/01/17 03:17:36;;;;;;;9.80;3.30;;;-2.10;99.90;;;;;;4756873;30;20644;-87
2024/01/17 03:20:03;;;;;;;10.37;4.00;;;-2.10;99.90;;;;;;4756962;30;20556;-86
2024/01/17 03:22:29;;;;;;;7.60;3.53;;;-2.20;99.90;;;;;;4749642;30;20195;-88
2024/01/17 03:24:54;;;;;;;8.97;4.03;;;-2.20;99.90;;;;;;4754506;30;20204;-88
2024/01/17 03:27:20;;;;;;;10.60;3.60;;;-2.20;99.90;;;;;;4745014;30;20202;-87
2024/01/17 03:29:46;;;;;;;8.27;4.07;;;-2.20;99.90;;;;;;4756782;30;20196;-88
2024/01/17 03:32:11;;;;;;;6.47;3.47;;;-2.20;99.90;;;;;;4756705;30;20199;-87
2024/01/17 03:34:37;;;;;;;8.13;3.17;;;-2.30;99.90;;;;;;4756498;30;20282;-87
2024/01/17 03:37:04;;;;;;;9.07;3.67;;;-2.30;99.90;;;;;;4749053;30;20637;-88
2024/01/17 03:39:32;;;;;;;9.27;3.83;;;-2.30;99.90;;;;;;4739399;30;20288;-88
2024/01/17 03:41:58;;;;;;;7.87;3.97;;;-2.30;99.90;;;;;;4742431;30;20227;-88
2024/01/17 03:44:23;;;;;;;8.17;3.93;;;-2.30;99.90;;;;;;4756774;30;20620;-88
2024/01/17 03:46:49;;;;;;;11.63;3.90;;;-2.30;99.90;;;;;;4756615;30;20199;-88
2024/01/17 03:49:15;;;;;;;6.47;4.10;;;-2.30;99.90;;;;;;4756279;30;20299;-88
2024/01/17 03:51:40;;;;;;;11.53;4.10;;;-2.30;99.90;;;;;;4756629;30;20229;-88
2024/01/17 03:54:07;;;;;;;9.00;3.83;;;-2.40;99.90;;;;;;4756477;30;20291;-88
2024/01/17 03:56:34;;;;;;;8.80;4.00;;;-2.30;99.90;;;;;;4756340;30;20200;-88
2024/01/17 03:59:00;;;;;;;9.17;4.40;;;-2.40;99.90;;;;;;4756446;30;20196;-89
2024/01/17 04:01:26;;;;;;;10.90;4.67;;;-2.40;99.90;;;;;;4756667;30;20309;-89
2024/01/17 04:03:53;;;;;;;12.83;4.57;;;-2.40;99.90;;;;;;4753921;30;20678;-88
2024/01/17 04:06:19;;;;;;;9.90;4.33;;;-2.40;99.90;;;;;;4749192;30;20211;-89
2024/01/17 04:08:45;;;;;;;7.37;3.80;;;-2.40;99.90;;;;;;4753408;30;20196;-89
2024/01/17 04:11:11;;;;;;;9.43;3.90;;;-2.30;99.90;;;;;;4750733;30;20199;-88
2024/01/17 04:13:36;;;;;;;7.43;4.10;;;-2.40;99.90;;;;;;4756202;30;20206;-88
2024/01/17 04:16:02;;;;;;;14.00;4.27;;;-2.40;99.90;;;;;;4756134;30;20207;-87
2024/01/17 04:18:28;;;;;;;8.00;3.70;;;-2.40;99.90;;;;;;4742142;30;20202;-87
2024/01/17 04:20:54;;;;;;;10.77;4.10;;;-2.40;99.90;;;;;;4760787;30;20257;-90
2024/01/17 04:23:19;;;;;;;13.27;4.50;;;-2.40;99.90;;;;;;4749282;30;20206;-88
2024/01/17 04:25:48;;;;;;;9.43;4.13;;;-2.40;99.90;;;;;;4756332;30;20208;-88
2024/01/17 04:28:14;;;;;;;7.23;3.33;;;-2.40;99.90;;;;;;4756064;30;20293;-88
2024/01/17 04:30:40;;;;;;;8.67;3.90;;;-2.40;99.90;;;;;;4755761;30;20602;-88
2024/01/17 04:33:09;;;;;;;6.90;3.77;;;-2.40;99.90;;;;;;4755880;30;20210;-90
2024/01/17 04:35:34;;;;;;;11.57;4.07;;;-2.50;99.90;;;;;;4756235;30;20609;-89
2024/01/17 04:38:00;;;;;;;9.97;3.77;;;-2.50;99.90;;;;;;4751831;30;20196;-89
2024/01/17 04:40:26;;;;;;;8.33;4.30;;;-2.60;99.90;;;;;;4756031;30;20258;-90
2024/01/17 04:42:54;;;;;;;14.00;4.50;;;-2.60;99.90;;;;;;4756016;30;20196;-88
2024/01/17 04:45:19;;;;;;;10.17;4.40;;;-2.60;99.90;;;;;;4755929;30;20233;-90
2024/01/17 04:47:47;;;;;;;8.70;4.07;;;-2.60;99.90;;;;;;4755648;30;20192;-89
2024/01/17 04:50:13;;;;;;;5.63;3.70;;;-2.70;99.90;;;;;;4756123;30;20232;-89
2024/01/17 04:52:39;;;;;;;8.27;4.07;;;-2.70;99.90;;;;;;4755888;30;20561;-90
2024/01/17 04:55:07;;;;;;;9.57;3.60;;;-2.70;99.90;;;;;;4755769;30;20191;-89
2024/01/17 04:57:34;;;;;;;10.67;4.00;;;-2.70;99.90;;;;;;4763535;30;20184;-87
2024/01/17 04:59:59;;;;;;;9.17;3.90;;;-2.70;99.90;;;;;;4748169;30;20195;-89
2024/01/17 05:02:25;;;;;;;5.90;3.80;;;-2.70;99.90;;;;;;4771495;30;20765;-88
2024/01/17 05:04:51;;;;;;;10.20;4.13;;;-2.70;99.90;;;;;;4755906;30;20643;-88
2024/01/17 05:07:16;;;;;;;8.33;3.93;;;-2.70;99.90;;;;;;4752988;30;20636;-89
2024/01/17 05:09:42;;;;;;;8.87;3.87;;;-2.70;99.90;;;;;;4759232;30;20719;-89
2024/01/17 05:12:08;;;;;;;10.37;4.07;;;-2.70;99.90;;;;;;4759278;30;20199;-87
2024/01/17 05:14:33;;;;;;;9.60;3.70;;;-2.70;99.90;;;;;;4774949;30;20264;-87
2024/01/17 05:17:01;;;;;;;9.13;3.87;;;-2.70;99.90;;;;;;4755991;30;20673;-87
2024/01/17 05:19:27;;;;;;;6.97;4.00;;;-2.70;99.90;;;;;;4740784;30;20191;-89
2024/01/17 05:21:53;;;;;;;9.30;3.90;;;-2.70;99.90;;;;;;4749488;30;20277;-86
2024/01/17 05:24:19;;;;;;;10.03;3.67;;;-2.70;99.90;;;;;;4754716;30;20203;-89
2024/01/17 05:26:46;;;;;;;10.13;4.43;;;-2.70;99.90;;;;;;4775166;30;20192;-89
2024/01/17 05:29:12;;;;;;;7.20;3.80;;;-2.70;99.90;;;;;;4758780;30;20248;-88
2024/01/17 05:31:37;;;;;;;6.93;3.57;;;-2.80;99.90;;;;;;4759251;30;20290;-90
2024/01/17 05:34:03;;;;;;;9.27;3.57;;;-2.80;99.90;;;;;;4759117;30;20194;-90
2024/01/17 05:36:32;;;;;;;6.30;3.43;;;-2.80;99.90;;;;;;4755399;30;20203;-90
2024/01/17 05:38:57;;;;;;;6.60;3.63;;;-2.80;99.90;;;;;;4767477;30;20191;-89
2024/01/17 05:41:23;;;;;;;7.47;3.90;;;-2.80;99.90;;;;;;4759016;30;20680;-90
2024/01/17 05:43:49;;;;;;;8.93;3.63;;;-2.90;99.90;;;;;;4751698;30;20629;-90
2024/01/17 05:46:14;;;;;;;12.80;3.87;;;-2.90;99.90;;;;;;4759036;30;20537;-91
2024/01/17 05:48:41;;;;;;;6.90;3.73;;;-2.80;99.90;;;;;;4758395;30;20235;-91
2024/01/17 05:51:07;;;;;;;9.43;4.20;;;-2.80;99.90;;;;;;4758915;30;20647;-90
2024/01/17 05:53:33;;;;;;;8.00;3.70;;;-2.80;99.90;;;;;;4758701;30;20199;-89
2024/01/17 05:55:58;;;;;;;6.23;3.53;;;-2.80;99.90;;;;;;4736829;30;20237;-90
2024/01/17 05:58:25;;;;;;;6.20;3.97;;;-2.80;99.90;;;;;;4758427;30;20530;-90
2024/01/17 06:00:51;;;;;;;9.23;4.37;;;-2.80;99.90;;;;;;4758336;30;20245;-88
2024/01/17 06:03:17;;;;;;;8.43;3.60;;;-2.80;99.90;;;;;;4750230;30;20673;-89
2024/01/17 06:05:45;;;;;;;4.40;3.13;;;-2.80;99.90;;;;;;4745259;30;20200;-90
2024/01/17 06:08:11;;;;;;;11.73;4.13;;;-2.80;99.90;;;;;;4749603;30;20192;-91
2024/01/17 06:10:40;;;;;;;7.83;3.60;;;-2.80;99.90;;;;;;4755934;30;20203;-89
2024/01/17 06:13:08;;;;;;;8.07;3.83;;;-2.80;99.90;;;;;;4755499;30;20200;-90
2024/01/17 06:15:34;;;;;;;7.63;3.93;;;-2.80;99.90;;;;;;4755003;30;20193;-91
2024/01/17 06:18:00;;;;;;;9.33;4.10;;;-2.80;99.90;;;;;;4739727;30;20200;-90
2024/01/17 06:20:26;;;;;;;7.37;3.70;;;-2.90;99.90;;;;;;4754726;30;20613;-90
2024/01/17 06:22:52;;;;;;;10.97;3.90;;;-2.90;99.90;;;;;;4755059;30;20204;-90
2024/01/17 06:25:17;;;;;;;9.20;3.60;;;-2.90;99.90;;;;;;4754678;30;20299;-91
2024/01/17 06:27:46;;;;;;;9.13;3.77;;;-2.80;99.90;;;;;;4754583;30;20197;-91
2024/01/17 06:30:12;;;;;;;7.43;3.87;;;-2.80;99.90;;;;;;4755249;30;20232;-90
2024/01/17 06:32:38;;;;;;;7.33;3.50;;;-2.80;99.90;;;;;;4755109;30;20197;-90
2024/01/17 06:35:04;;;;;;;5.77;3.40;;;-2.80;99.90;;;;;;4755007;30;20193;-90
2024/01/17 06:37:31;;;;;;;12.27;3.97;;;-2.90;99.90;;;;;;4744006;30;20200;-90
2024/01/17 06:39:57;;;;;;;7.13;3.97;;;-2.80;99.90;;;;;;4747566;30;20279;-90
2024/01/17 06:42:23;;;;;;;9.60;3.73;;;-2.90;99.90;;;;;;4749043;30;20288;-89
2024/01/17 06:44:49;;;;;;;7.63;4.03;;;-2.90;99.90;;;;;;4754853;30;20192;-91
2024/01/17 06:47:16;;;;;;;7.90;3.80;;;-2.90;99.90;;;;;;4754658;30;20204;-90
2024/01/17 06:49:41;;;;;;;6.50;3.77;;;-2.90;99.90;;;;;;4755433;30;20250;-91
2024/01/17 06:52:07;;;;;;;9.30;3.30;;;-2.90;99.90;;;;;;4754629;30;20192;-89
2024/01/17 06:54:33;;;;;;;10.57;4.03;;;-2.90;99.90;;;;;;4755769;30;20228;-89
2024/01/17 06:56:58;;;;;;;7.00;3.10;;;-2.90;99.90;;;;;;4755542;30;20212;-90
2024/01/17 06:59:24;;;;;;;13.20;3.87;;;-2.90;99.90;;;;;;4754541;30;20907;-91
2024/01/17 07:01:50;;;;;;;9.27;3.80;;;-2.90;99.90;;;;;;4748400;30;20225;-90
2024/01/17 07:04:16;;;;;;;7.40;3.80;;;-2.90;99.90;;;;;;4757511;30;20537;-91
2024/01/17 07:06:41;;;;;;;7.87;4.17;;;-2.90;99.90;;;;;;4753094;30;20207;-91
2024/01/17 07:09:11;;;;;;;7.43;3.93;;;-2.90;99.90;;;;;;4773104;30;20333;-90
2024/01/17 07:11:37;;;;;;;9.77;4.57;;;-2.90;99.90;;;;;;4750008;30;20191;-91
2024/01/17 07:14:03;;;;;;;8.13;4.33;;;-2.90;99.90;;;;;;4757546;30;20192;-90
2024/01/17 07:16:29;;;;;;;8.87;4.17;;;-2.90;99.90;;;;;;4757508;30;20207;-92
2024/01/17 07:19:03;;;;;;;7.27;4.20;;;-2.90;99.90;;;;;;4757263;30;20237;-91
2024/01/17 07:21:28;;;;;;;14.73;4.90;;;-2.90;99.90;;;;;;4743155;30;20343;-90
2024/01/17 07:23:54;;;;;;;9.97;4.30;;;-3.00;99.90;;;;;;4753793;30;20288;-91
2024/01/17 07:26:20;;;;;;;9.17;4.63;;;-3.00;99.90;;;;;;4752425;30;20271;-92
2024/01/17 07:28:56;;;;;;;10.50;4.63;;;-3.00;99.90;;;;;;4756839;30;20578;-91
2024/01/17 07:31:21;;;;;;;9.40;4.70;;;-3.00;99.90;;;;;;4756857;30;20253;-91
2024/01/17 07:33:47;;;;;;;10.53;5.70;;;-3.10;99.90;;;;;;4756743;30;20196;-91
2024/01/17 07:36:13;;;;;;;11.97;4.83;;;-3.10;99.90;;;;;;4754959;30;20549;-91
2024/01/17 07:38:38;;;;;;;8.90;5.17;;;-3.20;99.90;;;;;;4754413;30;20198;-91
2024/01/17 07:41:04;;;;;;;7.13;4.40;;;-3.10;99.90;;;;;;4756924;30;20798;-91
2024/01/17 07:43:31;;;;;;;12.63;6.00;;;-3.10;99.90;;;;;;4750029;30;20621;-92
2024/01/17 07:45:57;;;;;;;9.90;4.90;;;-3.10;99.90;;;;;;4756367;30;20534;-92
2024/01/17 07:48:25;;;;;;;10.90;5.07;;;-3.00;99.90;;;;;;4756708;30;20257;-89
2024/01/17 07:50:51;;;;;;;8.73;5.10;;;-3.00;99.90;;;;;;4756861;30;20245;-91
2024/01/17 07:53:17;;;;;;;12.57;5.37;;;-3.00;99.90;;;;;;4756829;30;20215;-91
2024/01/17 07:55:43;;;;;;;9.07;5.33;;;-2.90;99.90;;;;;;4756527;30;20230;-91
2024/01/17 07:58:11;;;;;;;12.57;5.30;;;-2.90;99.90;;;;;;4756435;30;20685;-91
2024/01/17 08:00:37;;;;;;;11.30;5.30;;;-2.90;99.90;;;;;;4756333;30;20227;-91
2024/01/17 08:03:03;;;;;;;7.63;4.97;;;-2.90;99.90;;;;;;4752861;30;20255;-89
2024/01/17 08:05:29;;;;;;;10.13;5.40;;;-2.90;99.90;;;;;;4752560;30;20200;-90
2024/01/17 08:07:55;;;;;;;13.13;5.73;;;-2.80;99.90;;;;;;4751986;30;20264;-91
2024/01/17 08:10:21;;;;;;;9.83;4.60;;;-2.80;99.90;;;;;;4756325;30;20520;-91
2024/01/17 08:12:46;;;;;;;10.57;5.30;;;-2.80;99.90;;;;;;4756536;30;20704;-92
2024/01/17 08:15:12;;;;;;;8.67;5.70;;;-2.80;99.90;;;;;;4751706;30;20315;-92
2024/01/17 08:17:38;;;;;;;9.40;5.70;;;-2.80;99.90;;;;;;4753637;30;20199;-91
2024/01/17 08:20:06;;;;;;;12.43;5.60;;;-2.70;99.90;;;;;;4755997;30;20196;-92
2024/01/17 08:22:33;;;;;;;10.80;5.37;;;-2.70;99.90;;;;;;4771717;30;20534;-92
2024/01/17 08:24:58;;;;;;;10.03;5.10;;;-2.70;99.90;;;;;;4755680;30;20643;-91
2024/01/17 08:27:24;;;;;;;13.80;5.53;;;-2.60;99.90;;;;;;4755959;30;20204;-90
2024/01/17 08:29:56;;;;;;;7.73;5.00;;;-2.60;99.90;;;;;;4756025;30;20203;-92
2024/01/17 08:32:22;;;;;;;10.27;5.27;;;-2.50;99.90;;;;;;4756034;30;20208;-93
2024/01/17 08:34:47;;;;;;;11.70;5.77;;;-2.50;99.90;;;;;;4756049;30;20195;-92
2024/01/17 08:37:13;;;;;;;10.80;5.90;;;-2.50;99.90;;;;;;4751873;30;20203;-92
2024/01/17 08:39:43;;;;;;;10.90;5.40;;;-2.40;99.90;;;;;;4755901;30;20200;-92
2024/01/17 08:42:11;;;;;;;11.30;5.33;;;-2.40;99.90;;;;;;4755797;30;20226;-93
2024/01/17 08:44:37;;;;;;;8.13;4.90;;;-2.40;99.90;;;;;;4755854;30;20663;-92
2024/01/17 08:47:03;;;;;;;10.07;5.90;;;-2.40;99.90;;;;;;4752501;30;20203;-91
2024/01/17 08:49:31;;;;;;;10.07;5.67;;;-2.30;99.90;;;;;;4744748;30;20199;-93
2024/01/17 08:51:57;;;;;;;12.57;5.73;;;-2.30;99.90;;;;;;4756131;30;20199;-93
2024/01/17 08:54:23;;;;;;;9.47;5.43;;;-2.30;99.90;;;;;;4749949;30;20208;-93
2024/01/17 08:56:49;;;;;;;9.60;5.60;;;-2.20;99.90;;;;;;4738254;30;20197;-93
2024/01/17 08:59:21;;;;;;;10.80;5.40;;;-2.20;99.90;;;;;;4743309;30;20327;-91
2024/01/17 09:01:47;;;;;;;8.80;5.77;;;-2.20;99.90;;;;;;4755485;30;20360;-94
2024/01/17 09:04:13;;;;;;;12.33;6.13;;;-2.10;99.90;;;;;;4771719;30;20275;-93
2024/01/17 09:06:39;;;;;;;10.10;5.73;;;-2.10;99.90;;;;;;4751520;30;20604;-93
2024/01/17 09:09:11;;;;;;;12.13;6.13;;;-2.00;99.90;;;;;;4771876;30;20294;-94
2024/01/17 09:11:37;;;;;;;10.53;5.77;;;-2.00;99.90;;;;;;4755738;30;20229;-93
2024/01/17 09:14:03;;;;;;;11.23;5.80;;;-1.90;99.90;;;;;;4755976;30;20226;-96
2024/01/17 09:16:30;;;;;;;10.33;5.40;;;-1.80;99.90;;;;;;4765029;30;20193;-93
2024/01/17 09:18:58;;;;;;;8.80;4.97;;;-1.80;99.90;;;;;;4755077;30;20200;-94
2024/01/17 09:21:24;;;;;;;9.37;5.20;;;-1.70;99.90;;;;;;4755780;30;20567;-95
2024/01/17 09:23:50;;;;;;;13.57;5.43;;;-1.70;99.90;;;;;;4755700;30;20196;-95
2024/01/17 09:26:16;;;;;;;8.37;5.23;;;-1.70;99.90;;;;;;4755542;30;20535;-95
2024/01/17 09:28:47;;;;;;;14.00;5.13;;;-1.60;99.90;;;;;;4755598;30;20196;-95
2024/01/17 09:31:12;;;;;;;11.87;5.70;;;-1.50;99.90;;;;;;4755735;30;20281;-95
2024/01/17 09:33:38;;;;;;;8.33;5.33;;;-1.50;99.90;;;;;;4755548;30;20232;-95
2024/01/17 09:36:05;;;;;;;10.00;5.70;;;-1.40;99.90;;;;;;4755149;30;20198;-96
2024/01/17 09:38:31;;;;;;;11.60;5.07;;;-1.40;99.90;;;;;;4752299;30;20211;-96
2024/01/17 09:40:57;;;;;;;11.10;5.40;;;-1.30;99.90;;;;;;4755487;30;20660;-95
2024/01/17 09:43:23;;;;;;;9.53;5.33;;;-1.30;99.90;;;;;;4755993;30;20192;-96
2024/01/17 09:45:49;;;;;;;11.00;5.37;;;-1.30;99.90;;;;;;4741708;30;20197;-94
2024/01/17 09:48:17;;;;;;;9.43;4.70;;;-1.20;99.90;;;;;;4755595;30;20203;-95
2024/01/17 09:50:46;;;;;;;11.53;5.07;;;-1.20;99.90;;;;;;4748424;30;20203;-96
2024/01/17 09:53:13;;;;;;;16.30;5.73;;;-1.20;99.90;;;;;;4747139;30;20193;-96
2024/01/17 09:55:41;;;;;;;9.30;5.23;;;-1.20;99.90;;;;;;4749751;30;20215;-96
2024/01/17 09:58:09;;;;;;;9.70;5.83;;;-1.10;99.90;;;;;;4749959;30;20193;-96
2024/01/17 10:00:39;;;;;;;14.20;5.87;;;-1.00;99.90;;;;;;4743401;30;20228;-96
2024/01/17 10:03:10;;;;;;;10.43;5.37;;;-1.00;99.90;;;;;;4749134;30;20243;-96
2024/01/17 10:05:37;;;;;;;11.67;5.87;;;-0.90;99.90;;;;;;4761603;30;20202;-96
2024/01/17 10:08:03;;;;;;;10.20;5.53;;;-0.90;99.90;;;;;;4743869;30;20192;-96
2024/01/17 10:10:39;;;;;;;10.70;5.50;;;-0.80;99.90;;;;;;4753779;30;20202;-96
2024/01/17 10:13:05;;;;;;;8.60;4.83;;;-0.80;99.90;;;;;;4755640;30;20329;-96
2024/01/17 10:15:32;;;;;;;11.03;5.00;;;-0.70;99.90;;;;;;4741924;30;20291;-96
2024/01/17 10:17:57;;;;;;;10.53;5.33;;;-0.70;99.90;;;;;;4764095;30;20286;-96
2024/01/17 10:20:23;;;;;;;6.93;4.60;;;-0.70;99.90;;;;;;4766404;30;20281;-96
2024/01/17 10:22:50;;;;;;;9.17;5.67;;;-0.70;99.90;;;;;;4768685;30;20248;-96
2024/01/17 10:25:17;;;;;;;10.23;5.00;;;-0.60;99.90;;;;;;4778200;30;20217;-96
2024/01/17 10:27:43;;;;;;;10.60;5.37;;;-0.60;99.90;;;;;;4782050;30;20222;-96
2024/01/17 10:30:15;;;;;;;9.10;5.23;;;-0.50;99.90;;;;;;4760182;30;20201;-96
2024/01/17 10:32:43;;;;;;;10.87;5.33;;;-0.50;99.90;;;;;;4763202;30;20203;-96
2024/01/17 10:35:35;;;;;;;9.67;5.50;;;-0.50;99.90;;;;;;4758670;30;20775;-96
2024/01/17 10:38:08;;;;;;;10.00;5.00;;;-0.40;99.90;;;;;;4786541;30;20183;-96
2024/01/17 10:40:55;;;;;;;8.47;4.70;;;-0.40;99.90;;;;;;4774793;30;20748;-96
2024/01/17 10:43:53;;;;;;;10.87;5.03;;;-0.40;99.90;;;;;;4747786;30;20212;-96
2024/01/17 10:46:19;;;;;;;10.90;5.30;;;-0.40;99.90;;;;;;4781559;30;20199;-96
2024/01/17 10:48:46;;;;;;;13.83;5.57;;;-0.40;99.90;;;;;;4762516;30;20204;-96
2024/01/17 10:51:45;;;;;;;11.10;5.23;;;-0.40;99.90;;;;;;4757951;30;20249;-96
2024/01/17 10:55:01;;;;;;;9.13;4.77;;;-0.40;99.90;;;;;;4772405;30;20208;-90
2024/01/17 10:57:41;;;;;;;8.80;5.13;;;-0.40;99.90;;;;;;4764335;30;20199;-96
2024/01/17 11:00:15;;;;;;;10.13;5.37;;;-0.40;99.90;;;;;;4762039;30;20199;-96
2024/01/17 11:02:42;;;;;;;9.80;4.73;;;-0.30;99.90;;;;;;4755152;30;20252;-96
2024/01/17 11:05:11;;;;;;;10.17;4.73;;;-0.30;99.90;;;;;;4737080;30;20281;-95
2024/01/17 11:07:41;;;;;;;8.87;5.20;;;-0.30;99.90;;;;;;4760548;30;20287;-96
2024/01/17 11:10:08;;;;;;;8.53;4.20;;;-0.30;99.90;;;;;;4761393;30;20193;-96
2024/01/17 11:12:36;;;;;;;10.27;5.13;;;-0.30;99.90;;;;;;4757906;30;20203;-96
2024/01/17 11:15:06;;;;;;;15.00;5.50;;;-0.20;99.90;;;;;;4760192;30;20199;-96
2024/01/17 11:17:36;;;;;;;13.43;5.03;;;-0.20;99.90;;;;;;4748398;30;20644;-96
2024/01/17 11:20:17;;;;;;;10.87;5.27;;;-0.20;99.90;;;;;;4759997;30;20192;-96
2024/01/17 11:22:43;;;;;;;9.10;5.03;;;-0.20;99.90;;;;;;4758446;30;20295;-96
2024/01/17 11:25:51;;;;;;;8.13;4.97;;;-0.10;99.90;;;;;;4747502;30;20193;-96
2024/01/17 11:28:21;;;;;;;12.90;6.10;;;0.00;99.90;;;;;;4745890;30;20203;-96
2024/01/17 11:31:19;;;;;;;8.07;5.27;;;0.00;99.90;;;;;;4748386;30;20193;-96
2024/01/17 11:33:46;;;;;;;9.30;4.57;;;0.10;99.90;;;;;;4738324;30;20239;-96
2024/01/17 11:36:52;;;;;;;19.33;8.60;;;0.10;99.90;;;;;;4749627;30;20196;-96
2024/01/17 11:39:19;;;;;;;8.70;4.67;;;0.20;99.90;;;;;;4688649;30;20642;-96
2024/01/17 11:41:59;;;;;;;13.07;5.20;;;0.20;99.90;;;;;;4702534;30;20230;-96
2024/01/17 11:44:26;;;;;;;14.97;5.17;;;0.20;99.90;;;;;;4718025;30;20665;-96
2024/01/17 11:46:53;;;;;;;8.37;4.67;;;0.30;99.90;;;;;;4747443;30;20208;-96
2024/01/17 11:49:40;;;;;;;12.33;4.40;;;0.30;99.90;;;;;;4754566;30;20201;-96
2024/01/17 11:52:34;;;;;;;11.80;6.27;;;0.30;99.90;;;;;;4754138;30;20197;-95
2024/01/17 11:55:01;;;;;;;8.80;5.00;;;0.30;99.90;;;;;;4748235;30;20254;-95
2024/01/17 11:57:31;;;;;;;9.10;5.30;;;0.30;99.90;;;;;;4753687;30;20196;-95
2024/01/17 12:00:07;;;;;;;12.03;5.00;;;0.30;99.90;;;;;;4753762;30;20517;-94
2024/01/17 12:02:38;;;;;;;9.23;5.50;;;0.40;99.90;;;;;;4753766;30;20247;-94
2024/01/17 12:05:08;;;;;;;12.87;5.50;;;0.40;99.90;;;;;;4753711;30;20197;-94
2024/01/17 12:07:39;;;;;;;8.67;4.40;;;0.50;99.90;;;;;;4749231;30;20228;-94
2024/01/17 12:10:10;;;;;;;8.73;4.77;;;0.40;99.90;;;;;;4753639;30;20224;-94
2024/01/17 12:12:44;;;;;;;11.37;5.13;;;0.40;99.90;;;;;;4753706;30;20291;-93
2024/01/17 12:15:11;;;;;;;13.50;4.70;;;0.40;99.90;;;;;;4741055;30;20199;-93
2024/01/17 12:17:38;;;;;;;9.70;5.17;;;0.50;99.90;;;;;;4753621;30;20192;-93
2024/01/17 12:20:07;;;;;;;9.27;4.87;;;0.40;99.90;;;;;;4735684;30;20197;-94
2024/01/17 12:22:39;;;;;;;10.33;4.93;;;0.50;99.90;;;;;;4750149;30;20652;-93
2024/01/17 12:25:07;;;;;;;11.00;5.13;;;0.50;99.90;;;;;;4749763;30;20193;-93
2024/01/17 12:27:33;;;;;;;10.87;4.93;;;0.50;99.90;;;;;;4750328;30;20228;-93
2024/01/17 12:30:03;;;;;;;12.73;5.73;;;0.50;99.90;;;;;;4745852;30;20672;-93
2024/01/17 12:32:29;;;;;;;7.93;4.67;;;0.50;99.90;;;;;;4753328;30;20200;-92
2024/01/17 12:34:55;;;;;;;10.27;4.57;;;0.50;99.90;;;;;;4753341;30;20702;-93
2024/01/17 12:37:21;;;;;;;9.40;4.67;;;0.50;99.90;;;;;;4748752;30;20288;-93
2024/01/17 12:39:48;;;;;;;9.70;4.80;;;0.50;99.90;;;;;;4753213;30;20223;-93
2024/01/17 12:42:16;;;;;;;10.50;4.70;;;0.50;99.90;;;;;;4753234;30;20568;-93
2024/01/17 12:44:44;;;;;;;10.87;4.90;;;0.50;99.90;;;;;;4752432;30;20196;-94
2024/01/17 12:47:10;;;;;;;7.47;4.53;;;0.50;99.90;;;;;;4735383;30;20205;-93